Flight Track Log - Related Links

Times and Time Zones

All times are in EDT time to prevent confusion due to time zone crossing. See the N5352K flight status page for this flight to view local times or setup timezone preferences in your user account.

Time Position Orientation Groundspeed Altitude Reporting Facility
EDT Latitude Longitude Course Direction KTS MPH feet Rate Location/Type
Tue 11:20:00 AM 26.1270 -81.6152 90° East  Level Estimated
Tue 11:21:00 AM 26.1214 -81.5888 103° East  Level FlightAware Approximate
Tue 11:21:42 AM 26.1947 -81.6283 102° East 67 77 4,700  Level Miami Center
Tue 11:22:00 AM 26.1171 -81.5621 101° East  Level Estimated
Tue 11:22:42 AM 26.1892 -81.6094 108° East 67 77 5,100  Level Miami Center
Tue 11:23:00 AM 26.1121 -81.5355 102° East  Level FlightAware Approximate
Tue 11:23:42 AM 26.1836 -81.5861 105° East 67 77 5,300  Level Miami Center
Tue 11:24:00 AM 26.1071 -81.5090 102° East  Level FlightAware Approximate
Tue 11:24:42 AM 26.1761 -81.5581 107° East 80 92 5,200  Level Miami Center
Tue 11:25:00 AM 26.1021 -81.4824 102° East  Level FlightAware Approximate
Tue 11:25:42 AM 26.1833 -81.5283 75° East 86 99 5,100  Level Miami Center
Tue 11:26:00 AM 26.0971 -81.4558 102° East  Level FlightAware Approximate
Tue 11:26:42 AM 26.1781 -81.5003 102° East 86 99 5,200  Level Miami Center
Tue 11:27:00 AM 26.0920 -81.4293 102° East  Level FlightAware Approximate
Tue 11:27:42 AM 26.1725 -81.4747 104° East 91 105 5,200  Level Miami Center
Tue 11:28:42 AM 26.1672 -81.4467 102° East 91 105 5,200  Level Miami Center
Tue 11:29:42 AM 26.1594 -81.4211 109° East 91 105 5,200  Level Miami Center
Tue 11:30:43 AM 26.1500 -81.3928 110° East 91 105 5,200  Level Miami Center
Tue 11:31:42 AM 26.1447 -81.3650 102° East 91 105 5,200  Level Miami Center
Tue 11:32:42 AM 26.1392 -81.3369 102° East 91 105 5,200 -50 Level Miami Center
Tue 11:33:42 AM 26.1403 -81.3044 88° East 92 106 5,100 -50 Descending Miami Center
Tue 11:34:42 AM 26.1389 -81.2767 93° East 92 106 5,100 50 Level Miami Center
Tue 11:35:42 AM 26.1356 -81.2511 98° East 85 98 5,200  Climbing Miami Center
Tue 11:36:42 AM 26.1322 -81.2233 98° East 85 98 5,100 -50 Descending Miami Center
Tue 11:37:42 AM 26.1289 -81.1956 98° East 90 104 5,100  Level Miami Center
Tue 11:38:42 AM 26.1256 -81.1675 98° East 85 98 5,100  Level Miami Center
Tue 11:39:42 AM 26.1264 -81.1375 88° East 85 98 5,100  Level Miami Center
Tue 11:40:42 AM 26.1189 -81.1094 107° East 85 98 5,100 50 Level Miami Center
Tue 11:41:42 AM 26.1156 -81.0817 98° East 90 104 5,200 50 Climbing Miami Center
Tue 11:42:42 AM 26.1183 -81.0564 83° East 90 104 5,200 -103 Level Miami Center
Tue 11:43:38 AM 26.1128 -81.0331 105° East 93 107 5,000 -248 Descending Miami Center
Tue 11:44:43 AM 26.0989 -81.0025 117° Southeast 90 104 4,700 -339 Descending Miami Center
Tue 11:45:42 AM 26.0892 -80.9767 113° Southeast 95 109 4,300 -410 Descending Miami Center
Tue 11:51:18 AM 26.1100 -80.8050 113° Southeast 93 107 2,000 -403 Descending FlightAware ADS-B
Tue 11:51:39 AM 26.1130 -80.7960 70° East 97 112 1,900  Descending FlightAware ADS-B
Tue 11:51:54 AM 26.1140 -80.7890 81° East 93 107 2,000 150 Climbing FlightAware ADS-B
Tue 11:52:19 AM 26.1140 -80.7790 90° East 93 107 2,000  Level FlightAware ADS-B
Tue 11:52:23 AM 26.1130 -80.7770 119° Southeast 94 108 2,000 207 Level FlightAware ADS-B
Tue 11:52:48 AM 26.1130 -80.7630 90° East 95 109 2,100  Climbing FlightAware ADS-B
Tue 11:53:09 AM 26.1120 -80.7520 96° East 99 114 2,000 -133 Descending FlightAware ADS-B
Tue 11:53:33 AM 26.1120 -80.7400 90° East 96 110 2,000  Level FlightAware ADS-B
Tue 11:53:54 AM 26.1130 -80.7310 83° East 95 109 2,000  Level FlightAware ADS-B
Tue 11:54:14 AM 26.1130 -80.7200 90° East 97 112 2,000  Level FlightAware ADS-B
Tue 11:54:58 AM 26.1140 -80.6990 87° East 93 107 2,000  Level FlightAware ADS-B
Tue 11:55:19 AM 26.1160 -80.6880 79° East 97 112 2,000 -143 Level FlightAware ADS-B
Tue 11:55:40 AM 26.1160 -80.6780 90° East 100 115 1,900 -150 Descending FlightAware ADS-B
Tue 11:55:59 AM 26.1150 -80.6690 97° East 98 113 1,900 261 Level FlightAware ADS-B
Tue 11:56:03 AM 26.1150 -80.6660 90° East 97 112 2,000 400 Climbing FlightAware ADS-B
Tue 11:56:14 AM 26.1130 -80.6620 119° Southeast 96 110 2,000 194 Level FlightAware ADS-B
Tue 11:56:34 AM 26.1080 -80.6540 125° Southeast 98 113 2,100  Climbing FlightAware ADS-B
Tue 11:56:49 AM 26.1050 -80.6480 119° Southeast 98 113 2,000 -167 Descending FlightAware ADS-B
Tue 11:57:10 AM 26.1010 -80.6380 114° Southeast 94 108 2,000  Level FlightAware ADS-B
Tue 11:57:33 AM 26.0960 -80.6260 115° Southeast 94 108 2,000  Level FlightAware ADS-B
Tue 11:57:59 AM 26.0920 -80.6140 110° East 96 110 2,000  Level FlightAware ADS-B
Tue 11:58:28 AM 26.0860 -80.6010 117° Southeast 91 105 2,000  Level FlightAware ADS-B
Tue 11:58:49 AM 26.0810 -80.5930 125° Southeast 94 108 2,000 194 Level FlightAware ADS-B
Tue 11:58:59 AM 26.0780 -80.5890 130° Southeast 94 108 2,100  Climbing FlightAware ADS-B
Tue 11:59:09 AM 26.0750 -80.5850 130° Southeast 96 110 2,000 -300 Descending FlightAware ADS-B
Tue 11:59:19 AM 26.0730 -80.5810 119° Southeast 97 112 2,000  Level FlightAware ADS-B
Tue 11:59:43 AM 26.0670 -80.5700 121° Southeast 96 110 2,000 133 Level FlightAware ADS-B
Tue 12:00:04 PM 26.0630 -80.5620 119° Southeast 95 109 2,100 146 Climbing FlightAware ADS-B
Tue 12:00:24 PM 26.0580 -80.5530 122° Southeast 92 106 2,100 -171 Level FlightAware ADS-B
Tue 12:00:39 PM 26.0550 -80.5470 119° Southeast 95 109 2,000 -150 Descending FlightAware ADS-B
Tue 12:01:04 PM 26.0490 -80.5350 119° Southeast 97 112 2,000  Level FlightAware ADS-B
Tue 12:01:19 PM 26.0450 -80.5290 127° Southeast 95 109 2,000  Level FlightAware ADS-B
Tue 12:01:43 PM 26.0390 -80.5180 121° Southeast 96 110 2,000  Level FlightAware ADS-B
Tue 12:02:03 PM 26.0340 -80.5100 125° Southeast 97 112 2,000  Level FlightAware ADS-B
Tue 12:02:33 PM 26.0270 -80.4970 121° Southeast 96 110 2,000  Level FlightAware ADS-B
Tue 12:02:58 PM 26.0210 -80.4860 121° Southeast 101 116 2,000  Level FlightAware ADS-B
Tue 12:03:13 PM 26.0170 -80.4800 127° Southeast 100 115 2,000 -171 Level FlightAware ADS-B
Tue 12:03:33 PM 26.0120 -80.4710 122° Southeast 96 110 1,900  Descending FlightAware ADS-B
Tue 12:03:54 PM 26.0080 -80.4620 116° Southeast 94 108 2,000 158 Climbing FlightAware ADS-B
Tue 12:04:11 PM 26.0040 -80.4560 127° Southeast 90 104 2,000  Level FlightAware ADS-B
Tue 12:04:29 PM 26.0000 -80.4480 119° Southeast 96 110 2,000  Level FlightAware ADS-B
Tue 12:04:49 PM 25.9950 -80.4390 122° Southeast 96 110 2,000  Level FlightAware ADS-B
Tue 12:05:14 PM 25.9890 -80.4280 121° Southeast 97 112 2,000 -136 Level FlightAware ADS-B
Tue 12:05:33 PM 25.9840 -80.4200 125° Southeast 102 117 1,900 -207 Descending FlightAware ADS-B
Tue 12:05:43 PM 25.9810 -80.4150 124° Southeast 103 119 1,900 -146 Level FlightAware ADS-B
Tue 12:06:14 PM 25.9740 -80.4010 119° Southeast 98 113 1,800 -295 Descending FlightAware ADS-B
Tue 12:06:44 PM 25.9660 -80.3880 124° Southeast 99 114 1,600 -240 Descending FlightAware ADS-B
Tue 12:07:04 PM 25.9620 -80.3790 116° Southeast 97 112 1,600 -150 Level FlightAware ADS-B
Tue 12:07:24 PM 25.9570 -80.3710 125° Southeast 100 115 1,500 -267 Descending FlightAware ADS-B
Tue 12:07:49 PM 25.9520 -80.3620 122° Southeast 82 94 1,400 -300 Descending FlightAware ADS-B
Tue 12:08:04 PM 25.9480 -80.3550 122° Southeast 84 97 1,300 -450 Descending FlightAware ADS-B
Tue 12:08:29 PM 25.9440 -80.3470 119° Southeast 76 87 1,100 -391 Descending FlightAware ADS-B
Tue 12:08:50 PM 25.9390 -80.3390 125° Southeast 76 87 1,000 -429 Descending FlightAware ADS-B
Tue 12:09:11 PM 25.9350 -80.3320 122° Southeast 84 97 800 -462 Descending FlightAware ADS-B
Tue 12:09:29 PM 25.9310 -80.3240 119° Southeast 83 96 700 -316 Descending FlightAware ADS-B
Tue 12:09:49 PM 25.9260 -80.3170 128° Southeast 85 98 600 -391 Descending FlightAware ADS-B
Tue 12:10:15 PM 25.9210 -80.3080 122° Southeast 94 108 400 -500 Descending FlightAware ADS-B
Tue 12:10:25 PM 25.9190 -80.3040 119° Southeast 94 108 300 -529 Descending FlightAware ADS-B
Tue 12:10:49 PM 25.9130 -80.2930 121° Southeast 90 104 100  Descending FlightAware ADS-B
Tue 12:10:59 PM 25.9110 -80.2890 119° Southeast 77 89 Descending FlightAware ADS-B
Tue 01:26:00 PM 25.9020 -80.2750 127° Southeast 71 82 300 Climbing FlightAware ADS-B
Tue 01:26:20 PM 25.9000 -80.2680 108° East 74 85 600 769 Climbing FlightAware ADS-B
Tue 01:26:39 PM 25.8990 -80.2600 98° East 70 81 800 720 Climbing FlightAware ADS-B
Tue 01:26:45 PM 25.8970 -80.2590 156° South 71 82 900 545 Climbing FlightAware ADS-B
Tue 01:26:50 PM 25.8960 -80.2580 138° Southeast 73 84 900 667 Level FlightAware ADS-B
Tue 01:26:54 PM 25.8940 -80.2570 156° South 68 78 1,000 500 Climbing FlightAware ADS-B
Tue 01:27:02 PM 25.8920 -80.2570 180° South 79 91 1,000 150 Level FlightAware ADS-B
Tue 01:27:34 PM 25.8850 -80.2680 235° Southwest 92 106 1,100  Climbing FlightAware ADS-B
Tue 01:28:01 PM 25.8850 -80.2810 270° West 102 117 1,000 -125 Descending FlightAware ADS-B
Tue 01:28:22 PM 25.8850 -80.2920 270° West 100 115 1,000  Level FlightAware ADS-B
Tue 01:28:41 PM 25.8860 -80.3010 277° West 88 101 1,000 -136 Level FlightAware ADS-B
Tue 01:29:06 PM 25.8870 -80.3110 276° West 81 93 900 -400 Descending FlightAware ADS-B
Tue 01:29:11 PM 25.8870 -80.3130 270° West 83 96 800 -545 Descending FlightAware ADS-B
Tue 01:29:17 PM 25.8880 -80.3150 299° West 82 94 800  Level FlightAware ADS-B
Tue 01:29:22 PM 25.8900 -80.3160 336° Northwest 89 102 800 -600 Level FlightAware ADS-B
Tue 01:29:27 PM 25.8930 -80.3160 360° North 98 113 700 -200 Descending FlightAware ADS-B
Tue 01:29:52 PM 25.8990 -80.3110 37° Northeast 75 86 700 -273 Level FlightAware ADS-B
Tue 01:30:11 PM 25.8990 -80.3040 90° East 71 82 500 -514 Descending FlightAware ADS-B
Tue 01:30:27 PM 25.8990 -80.2980 90° East 64 74 400 -429 Descending FlightAware ADS-B
Tue 01:30:53 PM 25.8990 -80.2900 90° East 65 75 200 -113 Descending FlightAware ADS-B
Tue 01:32:13 PM 25.9000 -80.2660 90° East 72 83 200 184 Level FlightAware ADS-B
Tue 01:32:31 PM 25.9000 -80.2590 90° East 71 82 500 828 Climbing FlightAware ADS-B
Tue 01:32:42 PM 25.8970 -80.2570 149° Southeast 63 72 600 667 Climbing FlightAware ADS-B
Tue 01:33:07 PM 25.8890 -80.2590 193° South 66 76 900 686 Climbing FlightAware ADS-B
Tue 01:33:17 PM 25.8860 -80.2610 211° Southwest 72 83 1,000 300 Climbing FlightAware ADS-B
Tue 01:33:27 PM 25.8840 -80.2640 233° Southwest 84 97 1,000 -429 Level FlightAware ADS-B
Tue 01:33:31 PM 25.8840 -80.2660 270° West 100 115 900  Descending FlightAware ADS-B
Tue 01:33:36 PM 25.8840 -80.2690 270° West 99 114 1,000 167 Climbing FlightAware ADS-B
Tue 01:34:07 PM 25.8850 -80.2860 274° West 106 122 1,000  Level FlightAware ADS-B
Tue 01:34:27 PM 25.8850 -80.2950 270° West 79 91 1,000 -308 Level FlightAware ADS-B
Tue 01:34:46 PM 25.8860 -80.3040 277° West 88 101 800 -353 Descending FlightAware ADS-B
Tue 01:35:01 PM 25.8900 -80.3080 318° Northwest 97 112 800 -167 Level FlightAware ADS-B
Tue 01:35:22 PM 25.8980 -80.3070 North 72 83 700 -462 Descending FlightAware ADS-B
Tue 01:35:27 PM 25.8990 -80.3060 42° Northeast 77 89 600 -400 Descending FlightAware ADS-B
Tue 01:35:37 PM 25.8990 -80.3020 90° East 73 84 600 -480 Level FlightAware ADS-B
Tue 01:35:52 PM 25.8990 -80.2970 90° East 61 70 400 -86 Descending FlightAware ADS-B
Tue 01:37:57 PM 25.9000 -80.2600 90° East 71 82 400 88 Level FlightAware ADS-B
Tue 01:38:09 PM 25.8980 -80.2570 127° Southeast 65 75 600 727 Climbing FlightAware ADS-B
Tue 01:38:30 PM 25.8900 -80.2590 193° South 77 89 800 621 Climbing FlightAware ADS-B
Tue 01:38:38 PM 25.8870 -80.2600 197° South 73 84 900 750 Climbing FlightAware ADS-B
Tue 01:38:46 PM 25.8850 -80.2620 222° Southwest 79 91 1,000 375 Climbing FlightAware ADS-B
Tue 01:38:54 PM 25.8850 -80.2660 270° West 95 109 1,000 -167 Level FlightAware ADS-B
Tue 01:39:22 PM 25.8850 -80.2810 270° West 105 121 900 -128 Descending FlightAware ADS-B
Tue 01:39:41 PM 25.8860 -80.2910 276° West 89 102 900 -300 Level FlightAware ADS-B
Tue 01:40:02 PM 25.8860 -80.3000 270° West 88 101 700 -667 Descending FlightAware ADS-B
Tue 01:40:17 PM 25.8890 -80.3050 304° West 93 107 500 -571 Descending FlightAware ADS-B
Tue 01:40:23 PM 25.8900 -80.3050 360° North 85 98 500 -214 Level FlightAware ADS-B
Tue 01:40:45 PM 25.8990 -80.3030 11° North 59 68 400 -500 Descending FlightAware ADS-B
Tue 01:40:59 PM 25.8990 -80.2990 90° East 63 72 200 -105 Descending FlightAware ADS-B
Tue 01:42:39 PM 25.9000 -80.2700 84° East 72 83 200 99 Level FlightAware ADS-B
Tue 01:43:00 PM 25.9000 -80.2620 90° East 69 79 400 727 Climbing FlightAware ADS-B
Tue 01:43:12 PM 25.8970 -80.2570 124° Southeast 68 78 600 818 Climbing FlightAware ADS-B
Tue 01:43:22 PM 25.8940 -80.2570 180° South 70 81 700 692 Climbing FlightAware ADS-B
Tue 01:43:38 PM 25.8890 -80.2580 190° South 65 75 900 462 Climbing FlightAware ADS-B
Tue 01:43:48 PM 25.8870 -80.2600 222° Southwest 73 84 900 429 Level FlightAware ADS-B
Tue 01:43:52 PM 25.8860 -80.2620 241° Southwest 82 94 1,000 600 Climbing FlightAware ADS-B
Tue 01:43:58 PM 25.8860 -80.2650 270° West 88 101 1,000  Level FlightAware ADS-B
Tue 01:44:24 PM 25.8850 -80.2780 265° West 101 116 1,000  Level FlightAware ADS-B
Tue 01:44:44 PM 25.8860 -80.2870 277° West 96 110 1,000 -353 Level FlightAware ADS-B
Tue 01:44:58 PM 25.8860 -80.2940 270° West 91 105 800 -529 Descending FlightAware ADS-B
Tue 01:45:18 PM 25.8870 -80.3030 277° West 90 104 700 -200 Descending FlightAware ADS-B
Tue 01:45:28 PM 25.8900 -80.3060 318° Northwest 92 106 700 -429 Level FlightAware ADS-B
Tue 01:45:32 PM 25.8910 -80.3060 360° North 84 97 600 -600 Descending FlightAware ADS-B
Tue 01:45:38 PM 25.8940 -80.3070 343° North 84 97 600 -222 Level FlightAware ADS-B
Tue 01:45:59 PM 25.8990 -80.3020 42° Northeast 67 77 500 -471 Descending FlightAware ADS-B
Tue 01:46:29 PM 25.8990 -80.2920 90° East 60 69 200 -162 Descending FlightAware ADS-B
Tue 01:47:50 PM 25.9000 -80.2680 84° East 75 86 200 170 Level FlightAware ADS-B
Tue 01:48:15 PM 25.9000 -80.2580 90° East 72 83 500 514 Climbing FlightAware ADS-B
Tue 01:48:25 PM 25.8980 -80.2550 127° Southeast 69 79 500 600 Level FlightAware ADS-B
Tue 01:48:35 PM 25.8940 -80.2550 180° South 66 76 700 774 Climbing FlightAware ADS-B
Tue 01:48:56 PM 25.8870 -80.2560 187° South 68 78 900 343 Climbing FlightAware ADS-B
Tue 01:49:10 PM 25.8850 -80.2610 246° West 96 110 900 154 Level FlightAware ADS-B
Tue 01:49:35 PM 25.8850 -80.2730 270° West 98 113 1,000  Climbing FlightAware ADS-B
Tue 01:49:51 PM 25.8850 -80.2820 270° West 101 116 900 -267 Descending FlightAware ADS-B
Tue 01:50:20 PM 25.8860 -80.2960 275° West 89 102 800 -273 Descending FlightAware ADS-B
Tue 01:50:35 PM 25.8860 -80.3030 270° West 86 99 700 -400 Descending FlightAware ADS-B
Tue 01:51:05 PM 25.8950 -80.3080 333° Northwest 80 92 500 -450 Descending FlightAware ADS-B
Tue 01:51:15 PM 25.8980 -80.3050 42° Northeast 77 89 400 -800 Descending FlightAware ADS-B
Tue 01:51:20 PM 25.8990 -80.3040 42° Northeast 71 82 300 -387 Descending FlightAware ADS-B
Tue 01:51:46 PM 25.8990 -80.2950 90° East 63 72 200 -100 Descending FlightAware ADS-B
Tue 01:53:20 PM 25.9000 -80.2690 80° East 72 83 100 52 Descending FlightAware ADS-B
Tue 01:53:42 PM 25.8990 -80.2610 98° East 67 77 300 581 Climbing FlightAware ADS-B
Tue 01:53:51 PM 25.8980 -80.2560 103° East 69 79 400 923 Climbing FlightAware ADS-B
Tue 01:53:55 PM 25.8970 -80.2550 138° Southeast 60 69 500 667 Climbing FlightAware ADS-B
Tue 01:54:00 PM 25.8960 -80.2550 180° South 70 81 500  Level FlightAware ADS-B
Tue 01:54:08 PM 25.8940 -80.2550 180° South 69 79 500 600 Level FlightAware ADS-B
Tue 01:54:30 PM 25.8850 -80.2580 197° South 80 92 800 667 Climbing FlightAware ADS-B
Tue 01:54:35 PM 25.8840 -80.2590 222° Southwest 88 101 800  Level FlightAware ADS-B
Tue 01:54:46 PM 25.8840 -80.2630 270° West 102 117 800 387 Level FlightAware ADS-B
Tue 01:55:06 PM 25.8850 -80.2730 276° West 93 107 1,000 300 Climbing FlightAware ADS-B
Tue 01:55:26 PM 25.8850 -80.2850 270° West 101 116 1,000  Level FlightAware ADS-B
Tue 01:55:45 PM 25.8850 -80.2930 270° West 90 104 1,000 -154 Level FlightAware ADS-B
Tue 01:56:05 PM 25.8860 -80.3010 278° West 87 100 900 -387 Descending FlightAware ADS-B
Tue 01:56:16 PM 25.8900 -80.3060 312° West 87 100 800 -750 Descending FlightAware ADS-B
Tue 01:56:21 PM 25.8920 -80.3060 360° North 97 112 700 -828 Descending FlightAware ADS-B
Tue 01:56:45 PM 25.8990 -80.3020 27° Northeast 75 86 400 -682 Descending FlightAware ADS-B
Tue 01:57:05 PM 25.8990 -80.2960 90° East 57 66 200  Descending FlightAware ADS-B
Tue 01:59:10 PM 25.8990 -80.2590 94° East 75 86 400 128 Climbing FlightAware ADS-B
Tue 01:59:26 PM 25.8970 -80.2540 114° Southeast 62 71 500 286 Climbing FlightAware ADS-B
Tue 01:59:31 PM 25.8950 -80.2540 180° South 68 78 500 621 Level FlightAware ADS-B
Tue 01:59:55 PM 25.8870 -80.2560 193° South 82 94 800 600 Climbing FlightAware ADS-B
Tue 02:00:01 PM 25.8860 -80.2590 250° West 85 98 800  Level FlightAware ADS-B
Tue 02:00:06 PM 25.8850 -80.2610 241° Southwest 97 112 800 400 Level FlightAware ADS-B
Tue 02:00:16 PM 25.8850 -80.2660 270° West 95 109 900 500 Climbing FlightAware ADS-B
Tue 02:00:30 PM 25.8860 -80.2720 280° West 96 110 1,000 150 Climbing FlightAware ADS-B
Tue 02:00:56 PM 25.8850 -80.2860 265° West 104 120 1,000 -146 Level FlightAware ADS-B
Tue 02:01:11 PM 25.8850 -80.2930 270° West 88 101 900 -462 Descending FlightAware ADS-B
Tue 02:01:35 PM 25.8860 -80.3040 276° West 94 108 700 -414 Descending FlightAware ADS-B
Tue 02:01:40 PM 25.8880 -80.3050 336° Northwest 92 106 700  Level FlightAware ADS-B
Tue 02:01:50 PM 25.8920 -80.3060 347° North 82 94 700 -400 Level FlightAware ADS-B
Tue 02:02:10 PM 25.8980 -80.3020 31° Northeast 74 85 500 -581 Descending FlightAware ADS-B
Tue 02:02:21 PM 25.8990 -80.2990 70° East 71 82 400 -98 Descending FlightAware ADS-B
Tue 02:04:12 PM 25.9000 -80.2660 90° East 70 81 300 44 Descending FlightAware ADS-B
Tue 02:04:36 PM 25.8960 -80.2560 114° Southeast 76 87 500 429 Climbing FlightAware ADS-B
Tue 02:04:40 PM 25.8950 -80.2560 180° South 81 93 500 1,000 Level FlightAware ADS-B
Tue 02:04:54 PM 25.8900 -80.2570 190° South 73 84 800 900 Climbing FlightAware ADS-B
Tue 02:05:00 PM 25.8880 -80.2580 204° Southwest 81 93 800  Level FlightAware ADS-B
Tue 02:05:08 PM 25.8870 -80.2600 241° Southwest 87 100 800 353 Level FlightAware ADS-B
Tue 02:05:17 PM 25.8860 -80.2640 254° West 90 104 900 444 Climbing FlightAware ADS-B
Tue 02:05:35 PM 25.8850 -80.2720 262° West 89 102 1,000 214 Climbing FlightAware ADS-B
Tue 02:05:45 PM 25.8850 -80.2780 270° West 96 110 1,000  Level FlightAware ADS-B
Tue 02:06:05 PM 25.8850 -80.2870 270° West 95 109 1,000 -321 Level FlightAware ADS-B
Tue 02:06:41 PM 25.8850 -80.3010 270° West 80 92 700 -536 Descending FlightAware ADS-B
Tue 02:07:01 PM 25.8900 -80.3070 313° West 81 93 500 -490 Descending FlightAware ADS-B
Tue 02:07:30 PM 25.8990 -80.3010 31° Northeast 71 82 300 -211 Descending FlightAware ADS-B
Tue 02:07:58 PM 25.8990 -80.2920 90° East 71 82 300  Level FlightAware ADS-B
Tue 02:09:34 PM 25.9000 -80.2650 90° East 71 82 300 100 Level FlightAware ADS-B
Tue 02:09:58 PM 25.8970 -80.2570 113° Southeast 67 77 500 600 Climbing FlightAware ADS-B
Tue 02:10:04 PM 25.8960 -80.2560 138° Southeast 67 77 600 800 Climbing FlightAware ADS-B
Tue 02:10:28 PM 25.8870 -80.2590 197° South 75 86 900 522 Climbing FlightAware ADS-B
Tue 02:10:50 PM 25.8840 -80.2660 245° Southwest 93 107 1,000  Climbing FlightAware ADS-B
Tue 02:11:21 PM 25.8840 -80.2800 270° West 97 112 900  Descending FlightAware ADS-B
Tue 02:11:38 PM 25.8850 -80.2880 278° West 79 91 1,000 -419 Climbing FlightAware ADS-B
Tue 02:12:04 PM 25.8870 -80.3000 280° West 87 100 600 -833 Descending FlightAware ADS-B
Tue 02:12:14 PM 25.8910 -80.3010 347° North 83 96 500 -400 Descending FlightAware ADS-B
Tue 02:12:34 PM 25.8980 -80.2980 21° North 71 82 400 -615 Descending FlightAware ADS-B
Tue 02:12:53 PM 25.8990 -80.2910 81° East 72 83 100 -114 Descending FlightAware ADS-B
Tue 02:14:19 PM 25.9000 -80.2650 90° East 75 86 200 356 Climbing FlightAware ADS-B
Tue 02:15:08 PM 25.8880 -80.2580 197° South 63 72 900 712 Climbing FlightAware ADS-B
Tue 02:15:18 PM 25.8860 -80.2610 233° Southwest 81 93 900 400 Level FlightAware ADS-B
Tue 02:15:23 PM 25.8860 -80.2630 270° West 90 104 1,000 545 Climbing FlightAware ADS-B
Tue 02:15:29 PM 25.8850 -80.2660 250° West 91 105 1,000 194 Level FlightAware ADS-B
Tue 02:15:54 PM 25.8840 -80.2770 264° West 92 106 1,100 120 Climbing FlightAware ADS-B
Tue 02:16:19 PM 25.8840 -80.2890 270° West 91 105 1,100 -176 Level FlightAware ADS-B
Tue 02:16:28 PM 25.8810 -80.2920 222° Southwest 72 83 1,000 -200 Descending FlightAware ADS-B
Tue 02:16:49 PM 25.8760 -80.2860 133° Southeast 84 97 1,000  Level FlightAware ADS-B
Tue 02:17:09 PM 25.8810 -80.2800 47° Northeast 94 108 1,000  Level FlightAware ADS-B
Tue 02:17:13 PM 25.8830 -80.2800 360° North 99 114 1,000  Level FlightAware ADS-B
Tue 02:17:33 PM 25.8900 -80.2850 327° Northwest 97 112 1,000 -130 Level FlightAware ADS-B
Tue 02:17:59 PM 25.8920 -80.2980 280° West 92 106 900 -133 Descending FlightAware ADS-B
Tue 02:18:18 PM 25.8970 -80.3050 308° West 91 105 900  Level FlightAware ADS-B
Tue 02:18:39 PM 25.9050 -80.3080 341° North 84 97 900 -429 Level FlightAware ADS-B
Tue 02:19:14 PM 25.9160 -80.3030 22° Northeast 76 87 500 -600 Descending FlightAware ADS-B
Tue 02:19:19 PM 25.9160 -80.3010 90° East 63 72 500  Level FlightAware ADS-B

Login

Don't have an account? Register now (free) for customized features, flight alerts, and more!